Terminal Aerodrome Forecast
Issued by NWS Jackson, MS

Home | Current Version | Previous Version | Text Only | Print | Product List | Glossary On
Versions: 1 2 3 4 5 6 7 8 9 10 11 12 13 14
000
FTUS44 KMEG 011720
TAFTUP
TAF
KTUP 011720Z 0118/0218 02007KT 5SM -SHRA OVC010
      TEMPO 0119/0123 3SM SHRA BR
     FM020100 09005KT 3SM -RA BR OVC005
     FM020800 03010G16KT 3SM -RA BR BKN005 OVC010
     FM021300 03012G20KT 5SM -RA BR OVC007=

USA.gov is the U.S. government's official web portal to all federal, state and local government web resources and services.